Time;durP1;ratioP1;P1;durP2;ratioP2;P2;SDS_P1;SDS_P2;PMS_P1;PMS_P2;Temp;Humidity;BMP_temperature;BMP_pressure;BME280_temperature;BME280_humidity;BME280_pressure;Samples;Min_cycle;Max_cycle;Signal;HPM_P1;HPM_P2
2022/05/17 03:01:52;;;;;;;2.33;1.60;;;26.10;47.70;;;;;;5320580;23;45806;-59
2022/05/17 03:04:17;;;;;;;1.98;1.77;;;26.10;47.80;;;;;;4950984;28;46746;-60
2022/05/17 03:06:44;;;;;;;1.92;1.67;;;26.10;47.80;;;;;;4987740;28;45140;-59
2022/05/17 03:09:10;;;;;;;2.90;2.15;;;26.10;47.80;;;;;;4970075;28;45206;-60
2022/05/17 03:11:36;;;;;;;2.95;2.10;;;26.10;47.70;;;;;;4971094;28;45108;-60
2022/05/17 03:14:02;;;;;;;4.25;1.90;;;26.10;47.70;;;;;;4948538;28;46146;-60
2022/05/17 03:16:30;;;;;;;3.40;1.95;;;26.10;47.70;;;;;;4964662;28;44887;-59
2022/05/17 03:18:57;;;;;;;2.33;1.83;;;26.10;47.70;;;;;;4945995;28;45261;-60
2022/05/17 03:21:23;;;;;;;2.38;2.17;;;26.10;47.70;;;;;;4966826;28;45260;-59
2022/05/17 03:23:49;;;;;;;1.77;1.67;;;26.10;47.70;;;;;;4968215;28;46134;-59
2022/05/17 03:26:14;;;;;;;2.15;1.85;;;26.20;47.80;;;;;;4969722;28;44682;-59
2022/05/17 03:28:40;;;;;;;2.42;1.95;;;26.10;47.80;;;;;;4967587;28;45084;-59
2022/05/17 03:31:09;;;;;;;2.33;2.03;;;26.10;47.70;;;;;;4971146;28;45121;-60
2022/05/17 03:33:34;;;;;;;2.08;1.88;;;26.10;47.70;;;;;;4964299;28;46211;-59
2022/05/17 03:36:00;;;;;;;1.95;1.77;;;26.10;47.80;;;;;;4958635;28;44775;-57
2022/05/17 03:38:25;;;;;;;2.22;1.90;;;26.10;47.80;;;;;;4968035;28;45248;-57
2022/05/17 03:40:52;;;;;;;1.83;1.73;;;26.10;47.70;;;;;;4950146;28;45141;-59
2022/05/17 03:43:19;;;;;;;2.13;1.92;;;26.10;47.70;;;;;;4950898;28;47441;-59
2022/05/17 03:45:45;;;;;;;2.40;2.20;;;26.10;47.70;;;;;;4964719;28;44950;-59
2022/05/17 03:48:10;;;;;;;2.50;2.05;;;26.10;47.70;;;;;;4950141;28;44911;-59
2022/05/17 03:50:37;;;;;;;2.38;1.85;;;26.10;47.80;;;;;;4964118;28;45160;-57
2022/05/17 03:53:02;;;;;;;2.28;1.60;;;26.10;47.80;;;;;;4969375;28;45356;-60
2022/05/17 03:55:28;;;;;;;2.17;1.98;;;26.10;47.90;;;;;;4965662;28;45301;-59
2022/05/17 03:57:54;;;;;;;2.30;1.90;;;26.10;47.80;;;;;;4954020;28;44784;-59
2022/05/17 04:00:20;;;;;;;2.05;1.83;;;26.10;47.80;;;;;;4966517;28;44705;-59
2022/05/17 04:02:46;;;;;;;2.72;2.28;;;26.00;47.80;;;;;;4969437;28;45628;-58
2022/05/17 04:05:12;;;;;;;3.65;2.45;;;26.00;47.80;;;;;;4967527;28;45011;-58
2022/05/17 04:07:38;;;;;;;1.77;1.67;;;26.00;47.80;;;;;;4958021;28;45026;-59
2022/05/17 04:10:06;;;;;;;2.63;1.98;;;26.00;47.80;;;;;;4968212;28;45438;-59
2022/05/17 04:12:31;;;;;;;2.20;2.00;;;26.00;47.80;;;;;;4966730;28;45004;-59
2022/05/17 04:14:57;;;;;;;3.88;1.67;;;26.00;47.80;;;;;;4965632;28;45458;-59
2022/05/17 04:17:22;;;;;;;2.05;1.95;;;26.00;47.80;;;;;;4951734;28;45033;-58
2022/05/17 04:19:48;;;;;;;1.95;1.60;;;26.00;47.90;;;;;;4962913;28;45400;-57
2022/05/17 04:22:14;;;;;;;2.25;1.70;;;26.00;47.80;;;;;;4960509;28;46056;-58
2022/05/17 04:24:41;;;;;;;2.25;1.73;;;26.00;47.80;;;;;;4966451;28;45028;-59
2022/05/17 04:27:07;;;;;;;1.77;1.67;;;26.00;47.80;;;;;;4969037;28;44998;-59
2022/05/17 04:29:33;;;;;;;1.77;1.60;;;26.10;47.90;;;;;;4972228;28;45154;-58
2022/05/17 04:31:59;;;;;;;2.58;1.75;;;26.00;47.70;;;;;;4967486;28;46149;-57
2022/05/17 04:34:24;;;;;;;2.53;1.77;;;26.00;47.70;;;;;;4970490;28;45076;-60
2022/05/17 04:36:50;;;;;;;1.88;1.70;;;26.00;47.70;;;;;;4968970;28;45189;-60
2022/05/17 04:39:15;;;;;;;1.75;1.63;;;26.00;47.80;;;;;;4966426;28;45103;-60
2022/05/17 04:41:41;;;;;;;2.67;1.83;;;26.00;47.70;;;;;;4971361;28;45546;-59
2022/05/17 04:44:07;;;;;;;3.10;1.90;;;26.00;47.80;;;;;;4973762;28;45350;-59
2022/05/17 04:46:32;;;;;;;3.03;1.70;;;26.00;47.80;;;;;;4971450;28;44944;-60
2022/05/17 04:48:58;;;;;;;2.70;1.73;;;26.00;47.70;;;;;;4965660;28;44824;-59
2022/05/17 04:51:24;;;;;;;3.20;1.90;;;26.00;47.80;;;;;;4954392;28;45934;-60
2022/05/17 04:53:49;;;;;;;2.08;1.80;;;26.00;47.80;;;;;;4968906;28;45170;-60
2022/05/17 04:56:15;;;;;;;2.25;1.73;;;26.00;47.80;;;;;;4971370;28;45002;-59
2022/05/17 04:58:41;;;;;;;1.88;1.75;;;26.00;47.80;;;;;;4969662;28;45010;-60
2022/05/17 05:01:06;;;;;;;2.00;1.85;;;26.00;47.80;;;;;;4964538;28;45382;-59
2022/05/17 05:03:32;;;;;;;3.28;2.00;;;26.00;47.80;;;;;;4964635;28;44844;-59
2022/05/17 05:05:57;;;;;;;1.98;1.80;;;26.00;47.80;;;;;;4968728;28;44994;-60
2022/05/17 05:08:23;;;;;;;2.85;1.70;;;26.00;47.80;;;;;;4966932;28;45130;-58
2022/05/17 05:10:49;;;;;;;3.55;2.17;;;26.00;47.80;;;;;;4968118;28;46136;-59
2022/05/17 05:13:15;;;;;;;2.33;1.70;;;26.00;47.80;;;;;;4971005;28;45298;-59
2022/05/17 05:15:41;;;;;;;1.95;1.70;;;26.00;47.70;;;;;;4950125;28;45221;-61
2022/05/17 05:18:07;;;;;;;2.13;1.92;;;26.10;47.70;;;;;;4971181;28;44993;-59
2022/05/17 05:20:32;;;;;;;2.03;1.70;;;26.00;47.70;;;;;;4969156;28;45555;-59
2022/05/17 05:22:58;;;;;;;2.10;1.83;;;26.00;47.70;;;;;;4973317;28;44905;-58
2022/05/17 05:25:23;;;;;;;2.80;2.17;;;26.00;47.70;;;;;;4969559;28;44920;-58
2022/05/17 05:27:49;;;;;;;3.00;2.03;;;26.00;47.70;;;;;;4971634;28;45701;-59
2022/05/17 05:30:15;;;;;;;2.15;1.95;;;26.00;47.70;;;;;;4963677;28;46208;-59
2022/05/17 05:32:41;;;;;;;3.20;2.22;;;26.10;47.70;;;;;;4969064;28;45769;-60
2022/05/17 05:35:07;;;;;;;2.60;2.25;;;26.10;47.70;;;;;;4971098;28;46076;-59
2022/05/17 05:37:32;;;;;;;1.73;1.63;;;26.10;47.70;;;;;;4955929;28;45659;-57
2022/05/17 05:39:58;;;;;;;1.75;1.60;;;26.10;48.30;;;;;;4969128;28;44883;-59
2022/05/17 05:42:24;;;;;;;2.95;1.95;;;26.10;47.60;;;;;;4965195;28;45001;-59
2022/05/17 05:44:50;;;;;;;1.75;1.50;;;26.20;47.50;;;;;;4971974;28;44978;-59
2022/05/17 05:47:15;;;;;;;2.20;1.98;;;26.20;47.40;;;;;;4962078;28;44739;-58
2022/05/17 05:49:41;;;;;;;2.08;1.88;;;26.30;47.40;;;;;;4975104;28;44953;-60
2022/05/17 05:52:07;;;;;;;3.00;1.80;;;26.30;47.40;;;;;;4965903;28;45209;-60
2022/05/17 05:54:33;;;;;;;1.85;1.70;;;26.30;47.40;;;;;;4963052;28;44630;-56
2022/05/17 05:57:00;;;;;;;2.42;2.20;;;26.30;47.40;;;;;;4971454;28;45103;-58
2022/05/17 05:59:28;;;;;;;3.13;1.88;;;26.20;47.30;;;;;;4951385;28;47767;-58
2022/05/17 06:01:54;;;;;;;2.22;1.92;;;26.30;47.40;;;;;;4961854;28;45021;-58
2022/05/17 06:04:19;;;;;;;3.15;2.20;;;26.20;47.90;;;;;;4970356;28;44926;-60
2022/05/17 06:06:45;;;;;;;2.15;1.95;;;26.20;47.40;;;;;;4969290;28;44747;-59
2022/05/17 06:09:10;;;;;;;2.20;2.00;;;26.20;47.40;;;;;;4976629;28;46366;-59
2022/05/17 06:11:36;;;;;;;2.92;2.00;;;26.20;47.40;;;;;;4965901;28;44792;-59
2022/05/17 06:14:02;;;;;;;4.88;2.30;;;26.20;47.40;;;;;;4955947;28;45013;-57
2022/05/17 06:16:27;;;;;;;5.00;3.00;;;26.30;47.50;;;;;;4967050;28;44883;-62
2022/05/17 06:18:53;;;;;;;8.45;4.30;;;26.30;47.50;;;;;;4964744;28;45588;-63
2022/05/17 06:21:18;;;;;;;5.18;4.22;;;26.20;47.50;;;;;;4963335;28;45025;-60
2022/05/17 06:23:44;;;;;;;5.45;4.50;;;26.10;47.70;;;;;;4965980;28;44992;-60
2022/05/17 06:26:10;;;;;;;8.23;4.22;;;26.10;47.90;;;;;;4963920;28;45092;-59
2022/05/17 06:28:35;;;;;;;11.02;5.10;;;26.00;48.00;;;;;;4947962;28;46387;-60
2022/05/17 06:31:01;;;;;;;6.78;4.47;;;26.00;48.20;;;;;;4967119;28;45112;-62
2022/05/17 06:33:29;;;;;;;8.88;4.60;;;25.90;48.40;;;;;;4967032;28;45295;-63
2022/05/17 06:35:55;;;;;;;8.52;4.22;;;25.90;48.50;;;;;;4974381;28;44790;-61
2022/05/17 06:38:20;;;;;;;6.15;3.85;;;25.90;48.60;;;;;;4954767;28;46366;-59
2022/05/17 06:40:46;;;;;;;7.90;3.13;;;25.90;48.70;;;;;;4965429;28;45239;-61
2022/05/17 06:43:11;;;;;;;2.72;2.53;;;25.90;48.70;;;;;;4969239;28;45167;-60
2022/05/17 06:45:37;;;;;;;4.50;2.85;;;25.90;48.60;;;;;;4968198;28;45000;-59
2022/05/17 06:48:03;;;;;;;6.72;3.20;;;25.90;48.60;;;;;;4972275;28;45625;-61
2022/05/17 06:50:29;;;;;;;3.53;2.60;;;25.90;48.50;;;;;;4966073;28;45136;-62
2022/05/17 06:52:55;;;;;;;7.88;3.03;;;26.00;48.50;;;;;;4967379;28;45195;-61
2022/05/17 06:55:22;;;;;;;4.22;3.30;;;26.00;48.40;;;;;;4962692;28;44780;-60
2022/05/17 06:57:48;;;;;;;4.50;2.63;;;26.00;48.40;;;;;;4967673;28;46209;-58
2022/05/17 07:00:14;;;;;;;4.43;3.08;;;26.10;48.30;;;;;;4967229;28;45110;-59
2022/05/17 07:02:40;;;;;;;5.85;2.83;;;26.10;48.30;;;;;;4964301;28;45266;-59
2022/05/17 07:05:06;;;;;;;4.38;2.63;;;26.20;48.30;;;;;;4968895;28;44958;-62
2022/05/17 07:07:32;;;;;;;3.55;2.70;;;26.20;48.30;;;;;;4947229;28;45332;-67
2022/05/17 07:15:26;;;;;;;3.53;2.72;;;26.20;49.00;;;;;;4967866;28;45799;-61
2022/05/17 07:17:51;;;;;;;4.93;2.90;;;26.20;48.30;;;;;;4968735;28;46224;-60
2022/05/17 07:20:17;;;;;;;3.90;2.95;;;26.30;48.30;;;;;;4960386;28;45129;-59
2022/05/17 07:22:43;;;;;;;5.50;2.83;;;26.30;48.30;;;;;;4969353;28;44781;-60
2022/05/17 07:25:09;;;;;;;3.40;2.53;;;26.30;48.30;;;;;;4968939;28;44938;-60
2022/05/17 07:27:34;;;;;;;3.78;2.63;;;26.40;48.30;;;;;;4968655;28;45934;-57
2022/05/17 07:30:00;;;;;;;2.75;2.47;;;26.40;48.20;;;;;;4968834;28;44858;-55
2022/05/17 07:32:25;;;;;;;4.25;2.85;;;26.40;48.20;;;;;;4968923;28;45004;-58
2022/05/17 07:34:51;;;;;;;4.32;2.60;;;26.40;48.10;;;;;;4968457;28;45235;-58
2022/05/17 07:37:17;;;;;;;3.85;2.97;;;26.50;48.20;;;;;;4968672;28;45824;-58
2022/05/17 07:39:42;;;;;;;3.80;2.55;;;26.50;48.10;;;;;;4969290;28;44956;-56
2022/05/17 07:42:08;;;;;;;4.05;2.92;;;26.50;48.10;;;;;;4974614;28;44920;-59
2022/05/17 07:44:34;;;;;;;4.80;3.05;;;26.50;48.10;;;;;;4965067;28;45304;-57
2022/05/17 07:47:00;;;;;;;4.15;2.75;;;26.50;48.00;;;;;;4961158;28;46023;-56
2022/05/17 07:49:26;;;;;;;4.38;2.55;;;26.60;48.10;;;;;;4970604;28;45435;-59
2022/05/17 07:51:52;;;;;;;3.65;2.90;;;26.60;48.10;;;;;;4970071;28;45059;-55
2022/05/17 07:54:18;;;;;;;3.55;2.70;;;26.60;48.00;;;;;;4966719;28;45560;-58
2022/05/17 07:56:44;;;;;;;3.65;2.65;;;26.60;48.00;;;;;;4967605;28;45807;-59
2022/05/17 07:59:09;;;;;;;3.63;2.83;;;26.60;48.00;;;;;;4969484;28;45494;-57
2022/05/17 08:01:35;;;;;;;4.80;2.60;;;26.70;48.60;;;;;;4963684;28;44733;-59
2022/05/17 08:04:00;;;;;;;4.30;2.90;;;26.70;48.00;;;;;;4969161;28;45505;-58
2022/05/17 08:06:26;;;;;;;2.80;2.35;;;26.70;47.90;;;;;;4966765;28;45968;-58
2022/05/17 08:08:51;;;;;;;2.75;2.47;;;26.70;47.90;;;;;;4968297;28;44890;-58
2022/05/17 08:11:17;;;;;;;2.88;2.60;;;26.70;48.40;;;;;;4974524;28;45141;-55
2022/05/17 08:13:43;;;;;;;4.47;2.53;;;26.80;47.90;;;;;;4965806;28;44927;-58
2022/05/17 08:16:08;;;;;;;4.63;2.60;;;26.80;47.90;;;;;;4965104;28;45557;-57
2022/05/17 08:18:34;;;;;;;2.70;2.30;;;26.80;47.80;;;;;;4966988;28;44959;-57
2022/05/17 08:21:00;;;;;;;2.85;2.38;;;26.80;47.80;;;;;;4964705;28;44757;-57
2022/05/17 08:23:25;;;;;;;6.85;2.80;;;26.90;47.80;;;;;;4967323;28;45073;-60
2022/05/17 08:28:35;;;;;;;2.90;2.60;;;26.90;47.80;;;;;;4969404;28;44811;-58
2022/05/17 08:31:01;;;;;;;3.08;2.60;;;26.90;47.70;;;;;;4961900;28;45021;-57
2022/05/17 08:33:27;;;;;;;3.45;2.50;;;26.90;47.70;;;;;;4962381;28;44923;-60
2022/05/17 08:35:58;;;;;;;3.15;2.40;;;26.90;47.70;;;;;;4969316;28;46125;-56
2022/05/17 08:38:29;;;;;;;4.30;2.50;;;27.00;47.80;;;;;;4969698;28;44787;-55
2022/05/17 08:41:05;;;;;;;2.75;2.55;;;26.90;47.70;;;;;;4973227;28;44690;-59
2022/05/17 08:43:34;;;;;;;2.92;2.63;;;27.00;47.70;;;;;;4933683;28;44957;-59
2022/05/17 08:46:13;;;;;;;3.08;2.60;;;27.00;47.70;;;;;;4965086;28;46181;-57
2022/05/17 08:48:54;;;;;;;2.63;2.42;;;27.10;47.70;;;;;;4929666;28;44655;-57
2022/05/17 08:51:26;;;;;;;3.00;2.63;;;27.10;47.70;;;;;;4960840;28;44972;-58
2022/05/17 08:53:51;;;;;;;4.47;2.50;;;27.10;47.60;;;;;;4947051;28;45802;-60
2022/05/17 08:56:17;;;;;;;3.28;2.58;;;27.10;47.60;;;;;;4944353;28;46014;-59
2022/05/17 08:58:44;;;;;;;2.90;2.60;;;27.10;47.60;;;;;;4968402;28;45033;-59
2022/05/17 09:01:23;;;;;;;2.95;2.47;;;27.10;47.60;;;;;;4933105;28;44702;-56
2022/05/17 09:04:11;;;;;;;3.53;2.67;;;27.10;47.60;;;;;;4951066;28;45674;-56
2022/05/17 09:06:58;;;;;;;3.17;2.58;;;27.10;47.60;;;;;;4964200;28;45535;-55
2022/05/17 09:09:46;;;;;;;3.10;2.45;;;27.20;47.60;;;;;;4934546;28;44977;-56
2022/05/17 09:12:23;;;;;;;2.55;2.35;;;27.10;47.50;;;;;;4970965;28;45081;-57
2022/05/17 09:14:49;;;;;;;4.63;2.42;;;27.20;47.50;;;;;;4944895;28;44906;-58
2022/05/17 09:17:16;;;;;;;4.55;3.08;;;27.20;47.50;;;;;;4933501;28;46280;-57
2022/05/17 09:19:43;;;;;;;4.38;3.28;;;27.20;47.50;;;;;;4974269;28;44780;-56
2022/05/17 09:22:09;;;;;;;4.30;3.10;;;27.20;47.40;;;;;;4973149;28;45466;-59
2022/05/17 09:24:43;;;;;;;3.35;2.70;;;27.20;47.40;;;;;;4956412;28;45119;-58
2022/05/17 09:27:08;;;;;;;2.72;2.50;;;27.20;47.30;;;;;;4951436;28;45153;-58
2022/05/17 09:29:40;;;;;;;3.30;2.97;;;27.30;47.40;;;;;;4968768;28;44946;-57
2022/05/17 09:32:08;;;;;;;4.28;3.03;;;27.30;47.30;;;;;;4953390;28;45283;-55
2022/05/17 09:34:42;;;;;;;3.20;2.80;;;27.30;47.30;;;;;;4978691;28;45041;-59
2022/05/17 09:37:17;;;;;;;3.95;2.53;;;27.30;47.20;;;;;;4968793;28;46454;-57
2022/05/17 09:39:45;;;;;;;3.63;2.80;;;27.30;47.20;;;;;;4970353;28;45110;-58
2022/05/17 09:42:30;;;;;;;3.13;2.50;;;27.40;47.20;;;;;;4965300;28;45051;-53
2022/05/17 09:44:58;;;;;;;3.33;2.42;;;27.40;47.20;;;;;;4939425;28;45375;-56
2022/05/17 09:47:32;;;;;;;3.50;2.70;;;27.40;47.20;;;;;;4932621;28;46075;-59
2022/05/17 09:52:46;;;;;;;2.92;2.55;;;27.50;47.20;;;;;;4955729;28;44979;-54
2022/05/17 09:55:20;;;;;;;3.45;2.33;;;27.40;47.10;;;;;;4938155;28;44960;-60
2022/05/17 09:58:02;;;;;;;3.30;2.92;;;27.40;47.10;;;;;;4967107;28;46164;-60
2022/05/17 10:00:30;;;;;;;3.22;2.38;;;27.50;47.10;;;;;;4964731;28;45026;-64
2022/05/17 10:03:00;;;;;;;2.95;2.50;;;27.50;47.10;;;;;;4955007;28;45076;-63
2022/05/17 10:05:40;;;;;;;3.67;2.60;;;27.50;47.10;;;;;;4965844;28;45216;-61
2022/05/17 10:08:25;;;;;;;3.03;2.55;;;27.50;46.90;;;;;;4965724;28;45430;-61
2022/05/17 10:11:03;;;;;;;2.70;2.50;;;27.50;47.00;;;;;;4951459;28;44910;-61
2022/05/17 10:13:51;;;;;;;2.58;2.38;;;27.50;46.90;;;;;;4968272;28;45256;-60
2022/05/17 10:16:40;;;;;;;3.35;2.60;;;27.50;47.00;;;;;;4971489;28;44910;-61
2022/05/17 10:19:23;;;;;;;2.53;2.17;;;27.50;46.80;;;;;;4952068;28;45922;-61
2022/05/17 10:21:51;;;;;;;;;;;27.60;46.90;;;;;;4932369;28;46148;-57
2022/05/17 10:24:35;;;;;;;2.65;2.45;;;27.50;46.80;;;;;;4955709;28;44870;-61
2022/05/17 10:27:37;;;;;;;4.25;2.50;;;27.60;46.80;;;;;;4951617;28;44681;-62
2022/05/17 10:30:12;;;;;;;3.28;2.55;;;27.60;46.80;;;;;;4954098;28;45667;-61
2022/05/17 10:32:59;;;;;;;2.78;2.45;;;27.60;46.80;;;;;;4967166;28;44971;-59
2022/05/17 10:35:42;;;;;;;2.60;2.40;;;27.60;46.70;;;;;;4949604;28;45165;-61
2022/05/17 10:38:13;;;;;;;3.20;2.40;;;27.60;46.70;;;;;;4972354;28;45052;-59
2022/05/17 10:40:46;;;;;;;2.95;2.20;;;27.60;46.80;;;;;;4948639;28;48045;-58
2022/05/17 10:43:32;;;;;;;;;;;27.60;46.80;;;;;;4970050;28;44977;-57
2022/05/17 10:46:18;;;;;;;2.42;2.13;;;27.50;47.30;;;;;;4966024;28;45008;-61
2022/05/17 10:48:46;;;;;;;2.60;2.40;;;27.60;46.70;;;;;;4945264;28;45729;-62
2022/05/17 10:51:23;;;;;;;2.78;2.50;;;27.50;46.80;;;;;;4966835;28;45768;-60
2022/05/17 10:54:01;;;;;;;3.30;2.60;;;27.50;46.80;;;;;;4951081;28;46070;-59
2022/05/17 10:56:48;;;;;;;2.60;2.40;;;27.60;46.80;;;;;;4967191;28;44959;-61
2022/05/17 10:59:36;;;;;;;5.15;2.85;;;27.60;46.60;;;;;;4970174;28;45055;-61
2022/05/17 11:02:09;;;;;;;3.55;2.75;;;27.60;46.60;;;;;;4955991;28;46203;-58
2022/05/17 11:04:59;;;;;;;2.40;2.20;;;27.60;46.80;;;;;;4969132;28;44937;-60
2022/05/17 11:07:49;;;;;;;2.20;2.10;;;27.60;46.60;;;;;;4971030;28;45262;-60
2022/05/17 11:10:17;;;;;;;2.75;2.55;;;27.60;46.70;;;;;;4970300;28;44997;-61
2022/05/17 11:12:49;;;;;;;2.60;2.40;;;27.60;46.70;;;;;;4973545;28;45998;-58
2022/05/17 11:15:18;;;;;;;3.08;2.67;;;27.60;46.60;;;;;;4949831;28;45060;-58
2022/05/17 11:18:17;;;;;;;3.67;3.05;;;27.60;46.70;;;;;;4950225;28;45344;-59
2022/05/17 11:20:53;;;;;;;2.72;2.22;;;27.70;46.50;;;;;;4898399;28;45187;-58
2022/05/17 11:23:38;;;;;;;3.85;2.58;;;27.70;46.60;;;;;;4947631;28;45158;-58
2022/05/17 11:26:45;;;;;;;4.10;2.75;;;27.70;46.60;;;;;;4967533;28;45112;-60
2022/05/17 11:29:25;;;;;;;2.70;2.05;;;27.80;46.40;;;;;;4862265;28;45278;-59
2022/05/17 11:32:14;;;;;;;2.70;2.50;;;27.80;46.40;;;;;;4856623;29;45337;-58
2022/05/17 11:34:41;;;;;;;3.38;2.55;;;27.80;46.40;;;;;;4944765;28;46246;-61
2022/05/17 11:37:09;;;;;;;2.55;2.30;;;27.80;46.50;;;;;;4971650;28;44987;-61
2022/05/17 11:39:40;;;;;;;2.95;2.40;;;27.80;46.50;;;;;;4953267;28;45939;-58
2022/05/17 11:42:28;;;;;;;2.47;2.28;;;27.90;46.60;;;;;;4975917;28;45187;-60
2022/05/17 11:44:53;;;;;;;2.88;2.53;;;27.90;46.50;;;;;;4955191;28;45582;-59
2022/05/17 11:47:32;;;;;;;2.63;2.38;;;27.90;46.50;;;;;;4969526;28;45068;-58
2022/05/17 11:50:15;;;;;;;3.47;2.53;;;27.90;46.40;;;;;;4968666;28;44882;-57
2022/05/17 11:52:42;;;;;;;2.40;2.20;;;27.90;46.30;;;;;;4972675;28;45249;-55
2022/05/17 11:55:18;;;;;;;2.92;2.55;;;27.90;46.40;;;;;;4935603;28;46105;-56
2022/05/17 11:57:47;;;;;;;3.10;2.85;;;28.00;46.40;;;;;;4954240;28;44754;-57
2022/05/17 12:00:25;;;;;;;2.40;2.20;;;28.00;46.40;;;;;;4973221;28;44917;-58
2022/05/17 12:02:58;;;;;;;2.67;2.47;;;28.00;46.30;;;;;;4968508;28;45828;-58
2022/05/17 12:05:48;;;;;;;2.50;2.30;;;28.00;46.40;;;;;;4942883;28;46025;-57
2022/05/17 12:08:39;;;;;;;2.50;2.22;;;28.00;46.30;;;;;;4972738;28;44905;-57
2022/05/17 12:11:14;;;;;;;2.70;2.50;;;28.00;46.30;;;;;;4956519;28;45029;-58
2022/05/17 12:13:55;;;;;;;3.25;2.55;;;28.00;46.30;;;;;;4974920;28;44806;-60
2022/05/17 12:16:29;;;;;;;2.83;2.42;;;28.10;46.30;;;;;;4970305;28;45631;-55
2022/05/17 12:19:03;;;;;;;2.92;2.63;;;28.10;46.30;;;;;;4970839;28;44747;-57
2022/05/17 12:22:03;;;;;;;2.47;2.25;;;28.10;46.30;;;;;;4968298;28;44943;-55
2022/05/17 12:24:50;;;;;;;3.22;2.38;;;28.20;46.30;;;;;;4940063;28;45026;-57
2022/05/17 12:27:34;;;;;;;2.20;2.00;;;28.10;46.20;;;;;;4951488;28;46277;-56
2022/05/17 12:33:16;;;;;;;2.42;2.05;;;28.10;46.30;;;;;;4957606;28;44998;-55
2022/05/17 12:35:41;;;;;;;2.38;2.17;;;28.10;46.30;;;;;;4966917;28;44858;-58
2022/05/17 12:43:02;;;;;;;3.22;2.70;;;28.20;46.30;;;;;;4969373;28;45083;-56
2022/05/17 12:43:43;;;;;;;2.78;2.47;;;28.20;46.30;;;;;;4963248;28;44847;-58
2022/05/17 12:46:14;;;;;;;2.53;1.98;;;28.20;46.20;;;;;;4936409;28;44734;-55
2022/05/17 12:48:39;;;;;;;2.85;2.60;;;28.30;46.30;;;;;;4953864;28;46176;-57
2022/05/17 12:51:06;;;;;;;2.95;2.67;;;28.30;46.30;;;;;;4976261;28;44955;-57
2022/05/17 12:53:49;;;;;;;3.40;2.75;;;28.30;46.30;;;;;;4958233;28;45173;-56
2022/05/17 12:56:24;;;;;;;2.63;2.42;;;28.30;46.20;;;;;;4977200;28;45040;-58
2022/05/17 12:58:50;;;;;;;4.70;2.45;;;28.30;46.20;;;;;;4976581;28;46013;-58
2022/05/17 13:01:24;;;;;;;3.13;2.65;;;28.30;46.30;;;;;;4973106;28;44803;-57
2022/05/17 13:03:53;;;;;;;3.42;2.60;;;28.30;46.20;;;;;;4955961;28;45110;-57
2022/05/17 13:06:19;;;;;;;2.47;2.28;;;28.30;46.30;;;;;;4950079;28;46238;-61
2022/05/17 13:08:45;;;;;;;2.70;2.50;;;28.30;46.40;;;;;;4966554;28;45499;-60
2022/05/17 13:11:18;;;;;;;2.65;2.20;;;28.30;46.40;;;;;;4948236;28;45056;-63
2022/05/17 13:13:44;;;;;;;;;;;28.30;46.30;;;;;;4967350;28;44958;-64
2022/05/17 13:16:19;;;;;;;2.17;1.98;;;28.30;46.30;;;;;;4965802;28;45013;-67
2022/05/17 13:18:49;;;;;;;2.25;2.05;;;28.30;46.40;;;;;;4946700;28;46277;-66
2022/05/17 13:21:19;;;;;;;2.78;2.50;;;28.30;46.50;;;;;;4944604;28;45144;-61
2022/05/17 13:23:46;;;;;;;2.42;2.22;;;28.30;46.50;;;;;;4949128;28;45248;-59
2022/05/17 13:26:13;;;;;;;2.92;2.58;;;28.30;46.60;;;;;;4934608;28;45249;-61
2022/05/17 13:28:39;;;;;;;2.65;2.40;;;28.20;46.50;;;;;;4949955;28;46141;-62
2022/05/17 13:31:14;;;;;;;3.05;2.35;;;28.20;46.50;;;;;;4949424;28;45258;-61
2022/05/17 13:33:41;;;;;;;2.60;2.28;;;28.20;46.50;;;;;;4966199;28;44954;-63
2022/05/17 13:36:13;;;;;;;2.65;2.45;;;28.10;46.50;;;;;;4932777;28;44942;-60
2022/05/17 13:38:39;;;;;;;2.63;2.33;;;28.20;46.50;;;;;;4966121;28;45439;-61
2022/05/17 13:41:23;;;;;;;3.20;2.10;;;28.10;46.50;;;;;;4967622;28;45571;-60
2022/05/17 13:43:59;;;;;;;2.47;2.28;;;28.10;46.30;;;;;;4966188;28;45043;-61
2022/05/17 13:46:48;;;;;;;4.03;2.20;;;28.10;46.40;;;;;;4966054;28;45495;-62
2022/05/17 13:49:19;;;;;;;2.80;2.17;;;28.20;46.40;;;;;;4954531;28;46205;-60
2022/05/17 13:51:54;;;;;;;2.13;2.03;;;28.10;46.50;;;;;;4937336;28;45040;-61
2022/05/17 13:54:26;;;;;;;4.05;2.30;;;28.10;46.40;;;;;;4948733;28;45161;-60
2022/05/17 13:57:13;;;;;;;2.15;2.00;;;28.10;46.50;;;;;;4966414;28;45070;-59
2022/05/17 13:59:50;;;;;;;3.08;2.55;;;28.10;46.40;;;;;;4957516;28;46274;-60
2022/05/17 14:02:30;;;;;;;2.58;2.38;;;28.10;46.60;;;;;;4948562;28;45047;-62
2022/05/17 14:05:08;;;;;;;3.05;2.35;;;28.10;46.60;;;;;;4967730;28;45012;-63
2022/05/17 14:07:36;;;;;;;2.67;2.25;;;28.10;46.50;;;;;;4965836;28;44963;-60
2022/05/17 14:13:09;;;;;;;2.47;2.25;;;28.10;46.50;;;;;;4965103;28;45028;-60
2022/05/17 14:15:35;;;;;;;2.80;2.58;;;28.00;46.40;;;;;;4967428;28;45098;-62
2022/05/17 14:18:01;;;;;;;2.83;2.63;;;28.00;46.40;;;;;;4948436;28;45207;-61
2022/05/17 14:20:27;;;;;;;2.90;2.70;;;28.00;46.50;;;;;;4963636;28;46114;-60
2022/05/17 14:22:56;;;;;;;2.50;2.30;;;28.00;46.50;;;;;;4966247;28;45110;-61
2022/05/17 14:25:22;;;;;;;2.50;2.30;;;28.00;46.40;;;;;;4964473;28;45109;-58
2022/05/17 14:27:47;;;;;;;2.40;2.20;;;28.10;46.50;;;;;;4965375;28;44813;-61
2022/05/17 14:30:13;;;;;;;2.55;2.30;;;28.00;46.50;;;;;;4965537;28;46345;-62
2022/05/17 14:32:39;;;;;;;2.65;2.42;;;28.00;46.50;;;;;;4965345;28;44939;-59
2022/05/17 14:35:04;;;;;;;2.58;2.38;;;28.00;46.50;;;;;;4931856;28;44706;-60
2022/05/17 14:37:30;;;;;;;2.47;2.28;;;28.00;46.50;;;;;;4965292;28;44982;-59
2022/05/17 14:39:57;;;;;;;2.60;2.40;;;28.00;46.50;;;;;;4961610;28;45908;-62
2022/05/17 14:42:23;;;;;;;2.97;2.60;;;28.00;46.40;;;;;;4965905;28;45101;-60
2022/05/17 14:44:48;;;;;;;2.30;2.13;;;28.00;46.40;;;;;;4965001;28;45284;-58
2022/05/17 14:47:19;;;;;;;2.28;2.08;;;28.00;46.40;;;;;;4967039;28;45138;-64
2022/05/17 14:49:49;;;;;;;2.35;2.15;;;28.00;46.40;;;;;;4947438;28;46171;-58
2022/05/17 14:52:14;;;;;;;2.55;2.28;;;28.00;46.40;;;;;;4930694;28;45311;-59
2022/05/17 14:54:40;;;;;;;2.13;1.92;;;28.00;46.40;;;;;;4931851;28;44931;-58
2022/05/17 14:57:06;;;;;;;2.75;2.22;;;28.00;46.40;;;;;;4964869;28;44971;-60
2022/05/17 14:59:32;;;;;;;2.33;2.10;;;28.00;46.40;;;;;;4963633;28;46119;-61
2022/05/17 15:01:57;;;;;;;2.97;2.67;;;28.00;46.40;;;;;;4947087;28;45389;-63
2022/05/17 15:04:24;;;;;;;2.50;2.30;;;28.00;46.40;;;;;;4965704;28;45183;-60
2022/05/17 15:06:53;;;;;;;3.92;2.30;;;28.00;46.50;;;;;;4944977;28;45491;-57
2022/05/17 15:09:29;;;;;;;2.50;2.30;;;27.90;46.50;;;;;;4939667;28;45685;-62
2022/05/17 15:11:55;;;;;;;2.67;2.40;;;28.00;46.40;;;;;;4927775;28;45009;-61
2022/05/17 15:14:21;;;;;;;2.83;2.30;;;28.00;46.40;;;;;;4964397;28;45342;-62
2022/05/17 15:16:47;;;;;;;3.00;2.33;;;28.00;46.40;;;;;;4961795;28;45200;-58
2022/05/17 15:19:13;;;;;;;2.80;2.60;;;28.00;46.40;;;;;;4964790;28;46360;-62
2022/05/17 15:21:41;;;;;;;3.35;2.88;;;28.00;46.40;;;;;;4947237;28;45014;-61
2022/05/17 15:24:10;;;;;;;2.40;2.20;;;28.00;46.30;;;;;;4950466;28;45070;-60
2022/05/17 15:26:36;;;;;;;3.17;2.58;;;28.00;46.40;;;;;;4962310;28;45207;-61
2022/05/17 15:29:02;;;;;;;2.83;2.63;;;28.00;46.30;;;;;;4962589;28;45355;-64
2022/05/17 15:31:28;;;;;;;2.92;2.72;;;28.00;46.30;;;;;;4963624;28;45041;-61
2022/05/17 15:33:54;;;;;;;2.50;2.30;;;28.00;46.30;;;;;;4948221;28;44718;-64
2022/05/17 15:36:19;;;;;;;2.75;2.55;;;28.00;46.30;;;;;;4963443;28;45476;-63
2022/05/17 15:38:45;;;;;;;3.08;2.40;;;28.00;46.30;;;;;;4964216;28;46065;-59
2022/05/17 15:41:12;;;;;;;2.25;2.05;;;28.00;46.20;;;;;;4962262;28;45303;-61
2022/05/17 15:43:37;;;;;;;2.30;2.10;;;28.00;46.20;;;;;;4966002;28;44972;-61
2022/05/17 15:46:09;;;;;;;2.50;2.30;;;28.00;46.20;;;;;;4963849;28;45569;-61
2022/05/17 15:54:08;;;;;;;2.70;2.47;;;28.00;46.20;;;;;;4965117;28;44960;-64
2022/05/17 15:56:33;;;;;;;2.55;2.35;;;28.00;46.20;;;;;;4962830;28;45519;-63
2022/05/17 15:58:59;;;;;;;3.08;2.60;;;28.00;46.20;;;;;;4943733;28;46298;-65
2022/05/17 16:01:25;;;;;;;2.53;2.33;;;28.00;46.20;;;;;;4960354;28;44737;-61
2022/05/17 16:04:54;;;;;;;2.72;2.42;;;28.00;46.20;;;;;;4928872;28;45189;-60
2022/05/17 16:06:43;;;;;;;3.45;2.58;;;28.00;46.10;;;;;;4964178;28;45033;-61
2022/05/17 16:09:09;;;;;;;3.97;2.20;;;28.00;46.10;;;;;;4930671;28;47291;-60
2022/05/17 16:11:50;;;;;;;2.28;2.00;;;28.00;46.20;;;;;;4963805;28;45013;-61
2022/05/17 16:14:19;;;;;;;2.80;2.20;;;28.00;46.10;;;;;;4946272;28;44695;-62
2022/05/17 16:16:47;;;;;;;2.60;2.40;;;28.00;46.00;;;;;;4963299;28;45012;-58
2022/05/17 16:19:15;;;;;;;2.80;2.40;;;28.00;46.00;;;;;;4928587;28;45590;-62
2022/05/17 16:21:43;;;;;;;2.40;2.20;;;28.00;46.00;;;;;;4932067;28;45083;-63
2022/05/17 16:24:09;;;;;;;2.42;2.22;;;28.00;46.10;;;;;;4937295;28;45807;-64
2022/05/17 16:26:35;;;;;;;2.72;2.53;;;28.00;46.00;;;;;;4971819;28;45193;-62
2022/05/17 16:29:02;;;;;;;2.60;2.40;;;28.00;46.00;;;;;;4968842;28;45499;-62